x

Monterey - 27nm Wnw Of Monterey, Ca (46042) Wave Buoy

11:50am - Wed 21st Feb 2018 All times are PST. -8 hours from GMT.

  • Sig Wave height 5.2ft
  • Swell Direction
  • Peak Period 15s
  • Average Period 8s
  • Wind
    4mph, 7mph gusts
  • Sea Temp 54°f
  • Air Temp 49°f
  • Sea Pressure 1022.8mb
  • Monterey - 27nm Wnw Of Monterey, Ca
  • Monterey - 27nm Wnw Of Monterey, Ca

More Historic Weather Station data

Upgrade to MSW Pro to gain access to the past 30 days of data for over 8000 Wavebouys and Weather Stations around the globe.

Join

Comparision Forecast

View Surf forecast
   
Wed 02/21 11:50am 5ft 15s 8s 4 7 mph 1022.8mb 54f 49f
10:50am 6.5ft 15s 9s 7 9 mph 1022.8mb 54f 49f
9:50am 4.5ft 16s 7s 9 11 mph 1022.5mb 54f 48f
8:50am 6ft 16s 8s 11 13 mph 1022.3mb 53f 48f
7:50am 4.5ft 16s 6s 11 13 mph 1021.9mb 53f 48f
6:50am 5.5ft 16s 7s 11 13 mph 1021.9mb 53f 47f
5:50am 5ft 16s 7s 13 18 mph 1021.5mb 53f 47f
4:50am 5ft 16s 7s 11 13 mph 1021.3mb 53f 47f
3:50am 5.5ft 16s 8s 7 9 mph 1020.9mb 53f 48f
2:50am 5.5ft 16s 8s 7 9 mph 1021.3mb 53f 48f
1:50am 6ft 16s 8s 4 9 mph 1021.8mb 54f 49f
12:50am 6ft 17s 7s 7 9 mph 1022.1mb 54f 49f
Tue 02/20 11:50pm 6ft 16s 7s 9 11 mph 1022.5mb 54f 50f
10:50pm 5.5ft 11s 6s 9 11 mph 1022.9mb 54f 50f
9:50pm 6ft 11s 6s 11 13 mph 1023.1mb 54f 49f
8:50pm 6.5ft 17s 7s 13 18 mph 1023.1mb 54f 49f
7:50pm 6ft 11s 6s 18 20 mph 1022.9mb 54f 49f
6:50pm 8ft 17s 7s 18 20 mph 1022.9mb 54f 49f
5:50pm 7.5ft 17s 6s 18 22 mph 1022.7mb 54f 49f
4:50pm 7.5ft 9s 7s 20 22 mph 1022.6mb 54f 48f
3:50pm 7ft 10s 6s 20 27 mph 1022.7mb 54f 48f
2:50pm 7.5ft 17s 7s 18 22 mph 1022.8mb 54f 48f
1:50pm 8ft 12s 7s 18 22 mph 1023mb 54f 48f
12:50pm 8ft 9s 7s 11 16 mph 1023.4mb 54f 47f
11:50am 7.5ft 11s 7s 13 18 mph 1024.1mb 54f 47f
10:50am 8ft 9s 7s 13 16 mph 1024.3mb 54f 47f
9:50am 9ft 10s 7s 11 16 mph 1024.2mb 54f 48f
8:50am 10ft 11s 8s 13 16 mph 1024.2mb 54f 48f
7:50am 10ft 11s 8s 11 16 mph 1023.7mb 54f 48f
6:50am 9.5ft 13s 8s 13 18 mph 1023mb 54f 48f
5:50am 10.5ft 11s 8s 13 18 mph 1022.6mb 54f 48f
4:50am 10.5ft 11s 8s 16 20 mph 1022mb 54f 48f
3:50am 12ft 10s 8s 16 20 mph 1021.6mb 54f 48f
2:50am 11.5ft 11s 8s 20 25 mph 1021.6mb 54f 49f
1:50am 13ft 11s 8s 20 25 mph 1021.2mb 54f 49f
12:50am 13ft 13s 8s 18 22 mph 1020.7mb 54f 49f
Mon 02/19 11:50pm 13ft 12s 7s 20 25 mph 1020.2mb 54f 49f
10:50pm 14ft 11s 7s 25 29 mph 1020mb 54f 49f
9:50pm 14.5ft 11s 7s 29 34 mph 1019.8mb 54f 49f
8:50pm 14ft 10s 7s 29 36 mph 1019.2mb 54f 49f
7:50pm 14.5ft 12s 8s 29 36 mph 1018.3mb 54f 49f
6:50pm 14.5ft 14s 8s 29 34 mph 1018.1mb 54f 49f
5:50pm 14.5ft 12s 8s 29 36 mph 1017.4mb 54f 49f
4:50pm 15ft 15s 8s 29 34 mph 1017.3mb 54f 50f
3:50pm 14ft 14s 8s 25 31 mph 1017.2mb 54f 49f
2:50pm 13ft 14s 8s 27 34 mph 1016.9mb 54f 49f
1:50pm 14ft 11s 7s 27 34 mph 1016.9mb 54f 49f
12:50pm 14.5ft 15s 8s 29 34 mph 1016.8mb 54f 48f
11:50am 14ft 9s 8s 27 34 mph 1017.2mb 54f 48f
10:50am 14.5ft 14s 8s 25 31 mph 1017.4mb 54f 48f
9:50am 14ft 14s 8s 27 34 mph 1016.8mb 54f 47f
8:50am 13.5ft 14s 7s 29 36 mph 1016.2mb 54f 47f
7:50am 13ft 13s 8s 27 34 mph 1015.5mb 54f 47f
6:50am 14ft 13s 8s 20 25 mph 1015.6mb 54f 44f
5:50am 14ft 11s 8s 34 43 mph 1015.4mb 54f 42f
4:50am 15ft 11s 8s 22 27 mph 1015mb 54f 48f
3:50am 12ft 11s 7s 20 29 mph 1015.2mb 54f 47f
2:50am 13ft 12s 7s 22 29 mph 1015.3mb 54f 48f
1:50am 12ft 11s 7s 25 31 mph 1015.8mb 54f 46f
12:50am 12.5ft 10s 7s 27 31 mph 1015.5mb 54f 49f
Sun 02/18 11:50pm 12ft 11s 7s 27 34 mph 1015.6mb 54f 49f
10:50pm 12.5ft 8s 7s 22 27 mph 1015.7mb 54f 49f
9:50pm 13ft 9s 7s 27 34 mph 1015.6mb 54f 50f
8:50pm 11ft 8s 7s 29 34 mph 1015.4mb 54f 49f
7:50pm 11ft 8s 6s 27 34 mph 1015.2mb 54f 50f
6:50pm 11ft 8s 7s 31 38 mph 1015.2mb 54f 50f
5:50pm 10ft 8s 6s 29 36 mph 1015.1mb 54f 50f
4:50pm 8.5ft 13s 6s 25 29 mph 1015.2mb 54f 52f
3:50pm 9.5ft 7s 6s 29 36 mph 1015.4mb 54f 50f
2:50pm 9ft 14s 6s 22 27 mph 1015.8mb 55f 53f
1:50pm 8ft 14s 6s 22 29 mph 1016.2mb 55f 53f
12:50pm 8ft 14s 6s 25 27 mph 1016.8mb 55f 52f
11:50am 7.5ft 14s 6s 22 25 mph 1017.3mb 55f 53f
10:50am 7ft 14s 6s 22 27 mph 1017.6mb 55f 52f
9:50am 7ft 15s 6s 20 25 mph 1017.3mb 54f 53f
8:50am 7ft 15s 6s 16 18 mph 1017mb 54f 53f
7:50am 8ft 15s 7s 16 20 mph 1016.9mb 54f 52f
6:50am 7.5ft 8s 7s 16 20 mph 1016.8mb 54f 51f
5:50am 8ft 14s 6s 13 16 mph 1017mb 54f 51f
4:50am 8ft 8s 6s 20 27 mph 1016.6mb 54f 52f
3:50am 8.5ft 8s 6s 22 25 mph 1016.5mb 55f 52f
2:50am 9ft 7s 6s 22 27 mph 1016.6mb 55f 52f
1:50am 8ft 14s 6s 22 25 mph 1016.9mb 55f 51f
12:50am 7.5ft 14s 6s 22 27 mph 1017mb 55f 52f
Sat 02/17 11:50pm 7ft 14s 6s 22 29 mph 1017.3mb 55f 52f
10:50pm 6.5ft 16s 6s 20 25 mph 1017.5mb 55f 54f
9:50pm 7ft 15s 6s 18 22 mph 1017.7mb 55f 54f